sensor_id;sensor_type;location;lat;lon;timestamp;P1;durP1;ratioP1;P2;durP2;ratioP2
23078;SDS011;11707;50.830;4.364;2023-04-25T00:00:22;18.08;;;3.60;;
23078;SDS011;11707;50.830;4.364;2023-04-25T00:02:50;16.90;;;4.63;;
23078;SDS011;11707;50.830;4.364;2023-04-25T00:05:16;19.45;;;4.05;;
23078;SDS011;11707;50.830;4.364;2023-04-25T00:07:42;12.63;;;3.50;;
23078;SDS011;11707;50.830;4.364;2023-04-25T00:10:08;18.33;;;4.38;;
23078;SDS011;11707;50.830;4.364;2023-04-25T00:12:36;11.90;;;3.65;;
23078;SDS011;11707;50.830;4.364;2023-04-25T00:15:02;15.32;;;4.22;;
23078;SDS011;11707;50.830;4.364;2023-04-25T00:17:28;17.25;;;4.20;;
23078;SDS011;11707;50.830;4.364;2023-04-25T00:19:54;19.23;;;4.30;;
23078;SDS011;11707;50.830;4.364;2023-04-25T00:22:20;14.15;;;4.25;;
23078;SDS011;11707;50.830;4.364;2023-04-25T00:24:46;17.45;;;4.32;;
23078;SDS011;11707;50.830;4.364;2023-04-25T00:27:13;13.70;;;4.25;;
23078;SDS011;11707;50.830;4.364;2023-04-25T00:29:39;21.98;;;3.83;;
23078;SDS011;11707;50.830;4.364;2023-04-25T00:32:08;14.68;;;4.85;;
23078;SDS011;11707;50.830;4.364;2023-04-25T00:34:34;29.42;;;6.18;;
23078;SDS011;11707;50.830;4.364;2023-04-25T00:36:59;16.30;;;3.80;;
23078;SDS011;11707;50.830;4.364;2023-04-25T00:39:27;15.32;;;4.28;;
23078;SDS011;11707;50.830;4.364;2023-04-25T00:41:55;14.02;;;4.35;;
23078;SDS011;11707;50.830;4.364;2023-04-25T00:44:20;13.07;;;3.97;;
23078;SDS011;11707;50.830;4.364;2023-04-25T00:46:54;23.17;;;5.15;;
23078;SDS011;11707;50.830;4.364;2023-04-25T00:49:20;20.17;;;5.22;;
23078;SDS011;11707;50.830;4.364;2023-04-25T00:51:46;15.77;;;4.28;;
23078;SDS011;11707;50.830;4.364;2023-04-25T00:54:12;20.33;;;5.55;;
23078;SDS011;11707;50.830;4.364;2023-04-25T00:56:38;12.30;;;4.35;;
23078;SDS011;11707;50.830;4.364;2023-04-25T00:59:04;18.58;;;4.95;;
23078;SDS011;11707;50.830;4.364;2023-04-25T01:01:31;21.05;;;5.05;;
23078;SDS011;11707;50.830;4.364;2023-04-25T01:03:58;11.18;;;3.63;;
23078;SDS011;11707;50.830;4.364;2023-04-25T01:06:24;14.73;;;4.25;;
23078;SDS011;11707;50.830;4.364;2023-04-25T01:08:50;18.02;;;5.53;;
23078;SDS011;11707;50.830;4.364;2023-04-25T01:11:19;22.80;;;4.90;;
23078;SDS011;11707;50.830;4.364;2023-04-25T01:13:45;17.92;;;4.93;;
23078;SDS011;11707;50.830;4.364;2023-04-25T01:16:13;20.65;;;6.35;;
23078;SDS011;11707;50.830;4.364;2023-04-25T01:18:39;27.42;;;6.20;;
23078;SDS011;11707;50.830;4.364;2023-04-25T01:21:07;22.52;;;5.32;;
23078;SDS011;11707;50.830;4.364;2023-04-25T01:23:34;19.75;;;4.97;;
23078;SDS011;11707;50.830;4.364;2023-04-25T01:26:01;16.67;;;5.72;;
23078;SDS011;11707;50.830;4.364;2023-04-25T01:28:27;22.52;;;5.32;;
23078;SDS011;11707;50.830;4.364;2023-04-25T01:30:53;14.32;;;5.30;;
23078;SDS011;11707;50.830;4.364;2023-04-25T01:33:22;21.48;;;5.90;;
23078;SDS011;11707;50.830;4.364;2023-04-25T01:35:52;23.42;;;5.32;;
23078;SDS011;11707;50.830;4.364;2023-04-25T01:38:18;16.25;;;5.18;;
23078;SDS011;11707;50.830;4.364;2023-04-25T01:40:46;16.92;;;4.70;;
23078;SDS011;11707;50.830;4.364;2023-04-25T01:43:15;10.70;;;4.10;;
23078;SDS011;11707;50.830;4.364;2023-04-25T01:45:44;19.92;;;5.28;;
23078;SDS011;11707;50.830;4.364;2023-04-25T01:48:13;12.27;;;4.72;;
23078;SDS011;11707;50.830;4.364;2023-04-25T01:50:39;19.92;;;5.80;;
23078;SDS011;11707;50.830;4.364;2023-04-25T01:53:05;21.88;;;5.75;;
23078;SDS011;11707;50.830;4.364;2023-04-25T01:55:31;15.60;;;5.03;;
23078;SDS011;11707;50.830;4.364;2023-04-25T01:58:00;15.45;;;4.97;;
23078;SDS011;11707;50.830;4.364;2023-04-25T02:00:28;14.18;;;4.88;;
23078;SDS011;11707;50.830;4.364;2023-04-25T02:02:59;17.30;;;5.03;;
23078;SDS011;11707;50.830;4.364;2023-04-25T02:05:25;13.55;;;4.43;;
23078;SDS011;11707;50.830;4.364;2023-04-25T02:07:51;20.17;;;5.10;;
23078;SDS011;11707;50.830;4.364;2023-04-25T02:10:16;18.08;;;4.75;;
23078;SDS011;11707;50.830;4.364;2023-04-25T02:12:42;20.27;;;4.25;;
23078;SDS011;11707;50.830;4.364;2023-04-25T02:15:08;17.42;;;4.70;;
23078;SDS011;11707;50.830;4.364;2023-04-25T02:17:34;22.08;;;5.28;;
23078;SDS011;11707;50.830;4.364;2023-04-25T02:19:59;15.52;;;5.20;;
23078;SDS011;11707;50.830;4.364;2023-04-25T02:22:25;19.00;;;5.43;;
23078;SDS011;11707;50.830;4.364;2023-04-25T02:24:52;20.58;;;5.13;;
23078;SDS011;11707;50.830;4.364;2023-04-25T02:27:18;19.30;;;5.55;;
23078;SDS011;11707;50.830;4.364;2023-04-25T02:29:46;23.70;;;5.20;;
23078;SDS011;11707;50.830;4.364;2023-04-25T02:32:12;19.67;;;5.30;;
23078;SDS011;11707;50.830;4.364;2023-04-25T02:34:37;18.55;;;5.25;;
23078;SDS011;11707;50.830;4.364;2023-04-25T02:37:03;25.83;;;5.85;;
23078;SDS011;11707;50.830;4.364;2023-04-25T02:39:28;24.75;;;5.68;;
23078;SDS011;11707;50.830;4.364;2023-04-25T02:41:54;16.67;;;4.82;;
23078;SDS011;11707;50.830;4.364;2023-04-25T02:44:20;15.80;;;4.82;;
23078;SDS011;11707;50.830;4.364;2023-04-25T02:46:48;32.90;;;5.97;;
23078;SDS011;11707;50.830;4.364;2023-04-25T02:49:13;21.73;;;5.50;;
23078;SDS011;11707;50.830;4.364;2023-04-25T02:51:39;20.83;;;5.30;;
23078;SDS011;11707;50.830;4.364;2023-04-25T02:54:05;17.88;;;5.38;;
23078;SDS011;11707;50.830;4.364;2023-04-25T02:56:33;25.00;;;4.88;;
23078;SDS011;11707;50.830;4.364;2023-04-25T02:58:59;14.70;;;4.63;;
23078;SDS011;11707;50.830;4.364;2023-04-25T03:01:25;24.05;;;5.28;;
23078;SDS011;11707;50.830;4.364;2023-04-25T03:03:50;17.25;;;5.47;;
23078;SDS011;11707;50.830;4.364;2023-04-25T03:06:16;16.25;;;5.57;;
23078;SDS011;11707;50.830;4.364;2023-04-25T03:08:41;20.50;;;4.18;;
23078;SDS011;11707;50.830;4.364;2023-04-25T03:11:07;35.88;;;5.53;;
23078;SDS011;11707;50.830;4.364;2023-04-25T03:13:33;21.20;;;4.78;;
23078;SDS011;11707;50.830;4.364;2023-04-25T03:15:59;21.83;;;5.60;;
23078;SDS011;11707;50.830;4.364;2023-04-25T03:18:27;20.52;;;4.88;;
23078;SDS011;11707;50.830;4.364;2023-04-25T03:20:55;15.80;;;4.85;;
23078;SDS011;11707;50.830;4.364;2023-04-25T03:23:21;27.67;;;5.22;;
23078;SDS011;11707;50.830;4.364;2023-04-25T03:25:46;19.60;;;4.65;;
23078;SDS011;11707;50.830;4.364;2023-04-25T03:28:12;23.42;;;5.88;;
23078;SDS011;11707;50.830;4.364;2023-04-25T03:30:40;22.85;;;6.05;;
23078;SDS011;11707;50.830;4.364;2023-04-25T03:33:06;20.27;;;4.85;;
23078;SDS011;11707;50.830;4.364;2023-04-25T03:35:31;16.50;;;4.25;;
23078;SDS011;11707;50.830;4.364;2023-04-25T03:37:57;19.35;;;4.63;;
23078;SDS011;11707;50.830;4.364;2023-04-25T03:40:23;19.52;;;4.50;;
23078;SDS011;11707;50.830;4.364;2023-04-25T03:42:48;22.73;;;5.05;;
23078;SDS011;11707;50.830;4.364;2023-04-25T03:45:14;17.73;;;5.70;;
23078;SDS011;11707;50.830;4.364;2023-04-25T03:47:40;14.38;;;4.38;;
23078;SDS011;11707;50.830;4.364;2023-04-25T03:50:05;21.33;;;5.20;;
23078;SDS011;11707;50.830;4.364;2023-04-25T03:52:31;20.33;;;4.90;;
23078;SDS011;11707;50.830;4.364;2023-04-25T03:54:57;18.48;;;4.47;;
23078;SDS011;11707;50.830;4.364;2023-04-25T03:57:23;20.10;;;5.57;;
23078;SDS011;11707;50.830;4.364;2023-04-25T03:59:51;21.75;;;5.63;;
23078;SDS011;11707;50.830;4.364;2023-04-25T04:02:17;18.77;;;4.18;;
23078;SDS011;11707;50.830;4.364;2023-04-25T04:04:43;20.67;;;5.35;;
23078;SDS011;11707;50.830;4.364;2023-04-25T04:07:11;14.50;;;4.97;;
23078;SDS011;11707;50.830;4.364;2023-04-25T04:09:41;23.73;;;5.10;;
23078;SDS011;11707;50.830;4.364;2023-04-25T04:12:07;12.48;;;4.55;;
23078;SDS011;11707;50.830;4.364;2023-04-25T04:14:33;16.55;;;4.68;;
23078;SDS011;11707;50.830;4.364;2023-04-25T04:17:02;15.93;;;4.05;;
23078;SDS011;11707;50.830;4.364;2023-04-25T04:19:28;19.08;;;4.60;;
23078;SDS011;11707;50.830;4.364;2023-04-25T04:21:53;17.80;;;5.82;;
23078;SDS011;11707;50.830;4.364;2023-04-25T04:24:21;18.10;;;4.78;;
23078;SDS011;11707;50.830;4.364;2023-04-25T04:26:50;16.02;;;4.35;;
23078;SDS011;11707;50.830;4.364;2023-04-25T04:29:15;17.63;;;4.97;;
23078;SDS011;11707;50.830;4.364;2023-04-25T04:31:47;21.90;;;5.07;;
23078;SDS011;11707;50.830;4.364;2023-04-25T04:34:13;16.85;;;5.22;;
23078;SDS011;11707;50.830;4.364;2023-04-25T04:36:42;18.48;;;4.43;;
23078;SDS011;11707;50.830;4.364;2023-04-25T04:39:10;24.50;;;4.47;;
23078;SDS011;11707;50.830;4.364;2023-04-25T04:41:35;18.60;;;4.68;;
23078;SDS011;11707;50.830;4.364;2023-04-25T04:44:01;14.13;;;4.30;;
23078;SDS011;11707;50.830;4.364;2023-04-25T04:46:31;19.55;;;4.75;;
23078;SDS011;11707;50.830;4.364;2023-04-25T04:49:02;12.00;;;4.60;;
23078;SDS011;11707;50.830;4.364;2023-04-25T04:51:31;24.33;;;6.20;;
23078;SDS011;11707;50.830;4.364;2023-04-25T04:53:59;31.63;;;5.07;;
23078;SDS011;11707;50.830;4.364;2023-04-25T04:56:27;13.82;;;4.78;;
23078;SDS011;11707;50.830;4.364;2023-04-25T04:58:58;14.25;;;4.93;;
23078;SDS011;11707;50.830;4.364;2023-04-25T05:01:25;23.65;;;5.20;;
23078;SDS011;11707;50.830;4.364;2023-04-25T05:03:51;16.52;;;6.32;;
23078;SDS011;11707;50.830;4.364;2023-04-25T05:06:17;17.55;;;5.40;;
23078;SDS011;11707;50.830;4.364;2023-04-25T05:08:46;18.75;;;4.93;;
23078;SDS011;11707;50.830;4.364;2023-04-25T05:11:12;16.20;;;5.00;;
23078;SDS011;11707;50.830;4.364;2023-04-25T05:13:37;12.75;;;4.45;;
23078;SDS011;11707;50.830;4.364;2023-04-25T05:16:03;24.80;;;5.18;;
23078;SDS011;11707;50.830;4.364;2023-04-25T05:18:29;14.07;;;4.90;;
23078;SDS011;11707;50.830;4.364;2023-04-25T05:20:55;14.02;;;5.45;;
23078;SDS011;11707;50.830;4.364;2023-04-25T05:23:20;16.15;;;6.00;;
23078;SDS011;11707;50.830;4.364;2023-04-25T05:25:46;16.27;;;5.32;;
23078;SDS011;11707;50.830;4.364;2023-04-25T05:28:12;19.23;;;5.70;;
23078;SDS011;11707;50.830;4.364;2023-04-25T05:30:40;16.20;;;5.68;;
23078;SDS011;11707;50.830;4.364;2023-04-25T05:33:06;19.23;;;5.22;;
23078;SDS011;11707;50.830;4.364;2023-04-25T05:35:34;15.82;;;5.57;;
23078;SDS011;11707;50.830;4.364;2023-04-25T05:38:00;22.85;;;6.45;;
23078;SDS011;11707;50.830;4.364;2023-04-25T05:40:26;25.60;;;6.80;;
23078;SDS011;11707;50.830;4.364;2023-04-25T05:42:52;16.17;;;5.18;;
23078;SDS011;11707;50.830;4.364;2023-04-25T05:45:18;13.38;;;5.15;;
23078;SDS011;11707;50.830;4.364;2023-04-25T05:47:43;12.52;;;5.25;;
23078;SDS011;11707;50.830;4.364;2023-04-25T05:50:09;16.75;;;4.47;;
23078;SDS011;11707;50.830;4.364;2023-04-25T05:52:35;16.42;;;5.28;;
23078;SDS011;11707;50.830;4.364;2023-04-25T05:55:00;15.73;;;4.07;;
23078;SDS011;11707;50.830;4.364;2023-04-25T05:57:26;15.68;;;4.55;;
23078;SDS011;11707;50.830;4.364;2023-04-25T05:59:54;14.95;;;4.50;;
23078;SDS011;11707;50.830;4.364;2023-04-25T06:02:22;23.73;;;5.13;;
23078;SDS011;11707;50.830;4.364;2023-04-25T06:04:51;12.80;;;4.10;;
23078;SDS011;11707;50.830;4.364;2023-04-25T06:07:19;19.73;;;5.60;;
23078;SDS011;11707;50.830;4.364;2023-04-25T06:09:45;28.50;;;6.47;;
23078;SDS011;11707;50.830;4.364;2023-04-25T06:12:14;15.55;;;4.63;;
23078;SDS011;11707;50.830;4.364;2023-04-25T06:14:40;20.83;;;5.65;;
23078;SDS011;11707;50.830;4.364;2023-04-25T06:17:05;26.83;;;7.68;;
23078;SDS011;11707;50.830;4.364;2023-04-25T06:19:33;21.88;;;5.35;;
23078;SDS011;11707;50.830;4.364;2023-04-25T06:22:00;21.80;;;6.63;;
23078;SDS011;11707;50.830;4.364;2023-04-25T06:24:28;19.25;;;6.18;;
23078;SDS011;11707;50.830;4.364;2023-04-25T06:26:56;18.02;;;6.07;;
23078;SDS011;11707;50.830;4.364;2023-04-25T06:29:22;18.35;;;6.82;;
23078;SDS011;11707;50.830;4.364;2023-04-25T06:31:47;12.55;;;6.38;;
23078;SDS011;11707;50.830;4.364;2023-04-25T06:34:16;21.08;;;5.80;;
23078;SDS011;11707;50.830;4.364;2023-04-25T06:36:42;17.83;;;5.95;;
23078;SDS011;11707;50.830;4.364;2023-04-25T06:39:09;18.90;;;5.35;;
23078;SDS011;11707;50.830;4.364;2023-04-25T06:41:35;10.70;;;3.92;;
23078;SDS011;11707;50.830;4.364;2023-04-25T06:44:01;18.33;;;4.95;;
23078;SDS011;11707;50.830;4.364;2023-04-25T06:46:26;13.98;;;4.93;;
23078;SDS011;11707;50.830;4.364;2023-04-25T06:48:54;12.73;;;4.10;;
23078;SDS011;11707;50.830;4.364;2023-04-25T06:51:20;18.15;;;4.57;;
23078;SDS011;11707;50.830;4.364;2023-04-25T06:53:46;13.35;;;3.95;;
23078;SDS011;11707;50.830;4.364;2023-04-25T06:56:11;11.40;;;4.30;;
23078;SDS011;11707;50.830;4.364;2023-04-25T06:58:37;17.25;;;4.03;;
23078;SDS011;11707;50.830;4.364;2023-04-25T07:01:03;17.48;;;3.97;;
23078;SDS011;11707;50.830;4.364;2023-04-25T07:03:29;17.73;;;4.65;;
23078;SDS011;11707;50.830;4.364;2023-04-25T07:05:55;16.55;;;3.63;;
23078;SDS011;11707;50.830;4.364;2023-04-25T07:08:20;21.65;;;3.83;;
23078;SDS011;11707;50.830;4.364;2023-04-25T07:10:46;20.63;;;4.65;;
23078;SDS011;11707;50.830;4.364;2023-04-25T07:13:14;14.63;;;4.32;;
23078;SDS011;11707;50.830;4.364;2023-04-25T07:15:40;33.67;;;7.72;;
23078;SDS011;11707;50.830;4.364;2023-04-25T07:18:07;26.10;;;5.55;;
23078;SDS011;11707;50.830;4.364;2023-04-25T07:20:32;22.45;;;4.18;;
23078;SDS011;11707;50.830;4.364;2023-04-25T07:22:58;16.85;;;3.92;;
23078;SDS011;11707;50.830;4.364;2023-04-25T07:25:24;21.23;;;3.58;;
23078;SDS011;11707;50.830;4.364;2023-04-25T07:27:49;16.27;;;3.50;;
23078;SDS011;11707;50.830;4.364;2023-04-25T07:30:17;15.60;;;3.88;;
23078;SDS011;11707;50.830;4.364;2023-04-25T07:32:43;11.43;;;3.22;;
23078;SDS011;11707;50.830;4.364;2023-04-25T07:35:12;15.75;;;3.53;;
23078;SDS011;11707;50.830;4.364;2023-04-25T07:37:38;9.13;;;2.85;;
23078;SDS011;11707;50.830;4.364;2023-04-25T07:40:06;7.03;;;2.60;;
23078;SDS011;11707;50.830;4.364;2023-04-25T07:42:33;14.10;;;3.10;;
23078;SDS011;11707;50.830;4.364;2023-04-25T07:45:00;11.82;;;3.90;;
23078;SDS011;11707;50.830;4.364;2023-04-25T07:47:25;13.60;;;2.75;;
23078;SDS011;11707;50.830;4.364;2023-04-25T07:49:51;12.00;;;2.83;;
23078;SDS011;11707;50.830;4.364;2023-04-25T07:52:21;15.20;;;3.20;;
23078;SDS011;11707;50.830;4.364;2023-04-25T07:54:46;9.82;;;3.08;;
23078;SDS011;11707;50.830;4.364;2023-04-25T07:57:12;10.05;;;3.25;;
23078;SDS011;11707;50.830;4.364;2023-04-25T07:59:39;9.57;;;2.35;;
23078;SDS011;11707;50.830;4.364;2023-04-25T08:02:05;16.35;;;2.65;;
23078;SDS011;11707;50.830;4.364;2023-04-25T08:04:33;13.85;;;5.07;;
23078;SDS011;11707;50.830;4.364;2023-04-25T08:06:58;17.52;;;2.85;;
23078;SDS011;11707;50.830;4.364;2023-04-25T08:09:24;11.10;;;2.65;;
23078;SDS011;11707;50.830;4.364;2023-04-25T08:11:50;13.73;;;2.53;;
23078;SDS011;11707;50.830;4.364;2023-04-25T08:14:18;12.30;;;3.05;;
23078;SDS011;11707;50.830;4.364;2023-04-25T08:16:44;14.63;;;3.28;;
23078;SDS011;11707;50.830;4.364;2023-04-25T08:19:13;14.93;;;3.42;;
23078;SDS011;11707;50.830;4.364;2023-04-25T08:21:38;12.75;;;2.90;;
23078;SDS011;11707;50.830;4.364;2023-04-25T08:24:04;20.35;;;3.10;;
23078;SDS011;11707;50.830;4.364;2023-04-25T08:26:30;7.90;;;2.78;;
23078;SDS011;11707;50.830;4.364;2023-04-25T08:28:56;11.73;;;3.45;;
23078;SDS011;11707;50.830;4.364;2023-04-25T08:31:21;13.18;;;3.63;;
23078;SDS011;11707;50.830;4.364;2023-04-25T08:33:47;13.68;;;2.60;;
23078;SDS011;11707;50.830;4.364;2023-04-25T08:36:16;12.23;;;2.92;;
23078;SDS011;11707;50.830;4.364;2023-04-25T08:38:45;8.98;;;3.35;;
23078;SDS011;11707;50.830;4.364;2023-04-25T08:41:11;14.35;;;3.50;;
23078;SDS011;11707;50.830;4.364;2023-04-25T08:43:37;11.43;;;3.15;;
23078;SDS011;11707;50.830;4.364;2023-04-25T08:46:10;14.25;;;4.25;;
23078;SDS011;11707;50.830;4.364;2023-04-25T08:48:37;11.82;;;3.13;;
23078;SDS011;11707;50.830;4.364;2023-04-25T08:51:06;16.23;;;3.67;;
23078;SDS011;11707;50.830;4.364;2023-04-25T08:53:35;7.57;;;2.33;;
23078;SDS011;11707;50.830;4.364;2023-04-25T08:56:01;11.55;;;2.72;;
23078;SDS011;11707;50.830;4.364;2023-04-25T08:58:28;11.38;;;2.53;;
23078;SDS011;11707;50.830;4.364;2023-04-25T09:00:56;19.83;;;3.20;;
23078;SDS011;11707;50.830;4.364;2023-04-25T09:03:25;7.15;;;2.80;;
23078;SDS011;11707;50.830;4.364;2023-04-25T09:05:51;9.27;;;2.22;;
23078;SDS011;11707;50.830;4.364;2023-04-25T09:08:17;4.72;;;2.30;;
23078;SDS011;11707;50.830;4.364;2023-04-25T09:10:43;9.35;;;2.40;;
23078;SDS011;11707;50.830;4.364;2023-04-25T09:13:10;11.00;;;2.55;;
23078;SDS011;11707;50.830;4.364;2023-04-25T09:15:48;9.07;;;2.78;;
23078;SDS011;11707;50.830;4.364;2023-04-25T09:18:21;10.27;;;2.42;;
23078;SDS011;11707;50.830;4.364;2023-04-25T09:21:07;6.78;;;1.77;;
23078;SDS011;11707;50.830;4.364;2023-04-25T09:23:44;8.77;;;2.00;;
23078;SDS011;11707;50.830;4.364;2023-04-25T09:26:15;7.55;;;2.08;;
23078;SDS011;11707;50.830;4.364;2023-04-25T09:28:45;8.05;;;2.25;;
23078;SDS011;11707;50.830;4.364;2023-04-25T09:31:20;9.85;;;2.15;;
23078;SDS011;11707;50.830;4.364;2023-04-25T09:33:50;6.25;;;1.90;;
23078;SDS011;11707;50.830;4.364;2023-04-25T09:36:23;8.82;;;1.88;;
23078;SDS011;11707;50.830;4.364;2023-04-25T09:38:52;8.65;;;2.47;;
23078;SDS011;11707;50.830;4.364;2023-04-25T09:41:22;10.23;;;4.13;;
23078;SDS011;11707;50.830;4.364;2023-04-25T09:43:49;10.82;;;2.88;;
23078;SDS011;11707;50.830;4.364;2023-04-25T09:46:15;10.38;;;2.08;;
23078;SDS011;11707;50.830;4.364;2023-04-25T09:48:43;9.32;;;2.60;;
23078;SDS011;11707;50.830;4.364;2023-04-25T09:51:14;7.50;;;1.70;;
23078;SDS011;11707;50.830;4.364;2023-04-25T09:53:40;6.60;;;2.15;;
23078;SDS011;11707;50.830;4.364;2023-04-25T09:56:08;7.28;;;2.38;;
23078;SDS011;11707;50.830;4.364;2023-04-25T09:58:36;13.38;;;2.30;;
23078;SDS011;11707;50.830;4.364;2023-04-25T10:01:03;4.15;;;1.60;;
23078;SDS011;11707;50.830;4.364;2023-04-25T10:03:34;6.50;;;1.70;;
23078;SDS011;11707;50.830;4.364;2023-04-25T10:06:01;9.73;;;2.70;;
23078;SDS011;11707;50.830;4.364;2023-04-25T10:08:34;3.70;;;1.48;;
23078;SDS011;11707;50.830;4.364;2023-04-25T10:11:03;6.05;;;1.75;;
23078;SDS011;11707;50.830;4.364;2023-04-25T10:13:30;7.00;;;1.95;;
23078;SDS011;11707;50.830;4.364;2023-04-25T10:16:00;9.93;;;2.10;;
23078;SDS011;11707;50.830;4.364;2023-04-25T10:18:28;6.18;;;1.20;;
23078;SDS011;11707;50.830;4.364;2023-04-25T10:20:55;9.02;;;1.60;;
23078;SDS011;11707;50.830;4.364;2023-04-25T10:23:25;10.05;;;2.20;;
23078;SDS011;11707;50.830;4.364;2023-04-25T10:25:51;8.05;;;2.00;;
23078;SDS011;11707;50.830;4.364;2023-04-25T10:28:18;4.88;;;1.45;;
23078;SDS011;11707;50.830;4.364;2023-04-25T10:30:57;8.35;;;1.83;;
23078;SDS011;11707;50.830;4.364;2023-04-25T10:36:17;4.90;;;1.73;;
23078;SDS011;11707;50.830;4.364;2023-04-25T10:38:46;6.25;;;1.20;;
23078;SDS011;11707;50.830;4.364;2023-04-25T10:41:13;3.83;;;1.92;;
23078;SDS011;11707;50.830;4.364;2023-04-25T10:43:43;4.05;;;1.08;;
23078;SDS011;11707;50.830;4.364;2023-04-25T10:48:57;2.92;;;1.00;;
23078;SDS011;11707;50.830;4.364;2023-04-25T10:51:25;8.65;;;2.17;;
23078;SDS011;11707;50.830;4.364;2023-04-25T11:01:44;4.28;;;1.85;;
23078;SDS011;11707;50.830;4.364;2023-04-25T11:04:20;8.73;;;1.17;;
23078;SDS011;11707;50.830;4.364;2023-04-25T11:07:04;6.78;;;1.58;;
23078;SDS011;11707;50.830;4.364;2023-04-25T11:09:35;8.85;;;1.98;;
23078;SDS011;11707;50.830;4.364;2023-04-25T11:12:03;4.50;;;2.22;;
23078;SDS011;11707;50.830;4.364;2023-04-25T11:14:30;6.97;;;2.08;;
23078;SDS011;11707;50.830;4.364;2023-04-25T11:16:56;16.25;;;2.63;;
23078;SDS011;11707;50.830;4.364;2023-04-25T11:19:23;4.65;;;2.13;;
23078;SDS011;11707;50.830;4.364;2023-04-25T11:21:50;5.30;;;1.58;;
23078;SDS011;11707;50.830;4.364;2023-04-25T11:24:16;7.80;;;1.60;;
23078;SDS011;11707;50.830;4.364;2023-04-25T11:26:42;9.88;;;1.80;;
23078;SDS011;11707;50.830;4.364;2023-04-25T11:29:12;8.52;;;1.58;;
23078;SDS011;11707;50.830;4.364;2023-04-25T11:31:38;6.95;;;1.52;;
23078;SDS011;11707;50.830;4.364;2023-04-25T11:34:03;7.00;;;2.17;;
23078;SDS011;11707;50.830;4.364;2023-04-25T11:36:29;6.85;;;1.52;;
23078;SDS011;11707;50.830;4.364;2023-04-25T11:38:55;10.25;;;1.95;;
23078;SDS011;11707;50.830;4.364;2023-04-25T11:41:21;9.75;;;1.80;;
23078;SDS011;11707;50.830;4.364;2023-04-25T11:43:47;8.70;;;2.03;;
23078;SDS011;11707;50.830;4.364;2023-04-25T11:46:13;6.68;;;2.00;;
23078;SDS011;11707;50.830;4.364;2023-04-25T11:48:40;8.30;;;1.50;;
23078;SDS011;11707;50.830;4.364;2023-04-25T11:51:06;5.72;;;1.67;;
23078;SDS011;11707;50.830;4.364;2023-04-25T11:53:32;8.20;;;1.52;;
23078;SDS011;11707;50.830;4.364;2023-04-25T11:56:01;4.68;;;1.85;;
23078;SDS011;11707;50.830;4.364;2023-04-25T11:58:27;3.63;;;1.40;;
23078;SDS011;11707;50.830;4.364;2023-04-25T12:00:53;6.45;;;1.45;;
23078;SDS011;11707;50.830;4.364;2023-04-25T12:03:19;4.85;;;1.38;;
23078;SDS011;11707;50.830;4.364;2023-04-25T12:05:47;12.93;;;1.65;;
23078;SDS011;11707;50.830;4.364;2023-04-25T12:08:15;3.47;;;1.17;;
23078;SDS011;11707;50.830;4.364;2023-04-25T12:10:42;4.38;;;1.38;;
23078;SDS011;11707;50.830;4.364;2023-04-25T12:13:21;9.25;;;1.48;;
23078;SDS011;11707;50.830;4.364;2023-04-25T12:15:49;4.75;;;1.58;;
23078;SDS011;11707;50.830;4.364;2023-04-25T12:18:18;3.30;;;1.23;;
23078;SDS011;11707;50.830;4.364;2023-04-25T12:20:45;7.32;;;1.42;;
23078;SDS011;11707;50.830;4.364;2023-04-25T12:23:11;5.55;;;1.98;;
23078;SDS011;11707;50.830;4.364;2023-04-25T12:30:58;3.85;;;1.23;;
23078;SDS011;11707;50.830;4.364;2023-04-25T12:33:37;4.85;;;1.73;;
23078;SDS011;11707;50.830;4.364;2023-04-25T12:36:04;6.63;;;2.17;;
23078;SDS011;11707;50.830;4.364;2023-04-25T12:38:36;8.13;;;2.25;;
23078;SDS011;11707;50.830;4.364;2023-04-25T12:41:02;3.60;;;1.05;;
23078;SDS011;11707;50.830;4.364;2023-04-25T12:43:28;7.25;;;1.45;;
23078;SDS011;11707;50.830;4.364;2023-04-25T12:45:55;6.75;;;1.50;;
23078;SDS011;11707;50.830;4.364;2023-04-25T12:48:25;4.88;;;1.13;;
23078;SDS011;11707;50.830;4.364;2023-04-25T12:50:51;2.65;;;1.33;;
23078;SDS011;11707;50.830;4.364;2023-04-25T12:53:21;4.78;;;0.98;;
23078;SDS011;11707;50.830;4.364;2023-04-25T12:55:48;5.45;;;1.45;;
23078;SDS011;11707;50.830;4.364;2023-04-25T12:58:14;4.53;;;1.30;;
23078;SDS011;11707;50.830;4.364;2023-04-25T13:00:41;5.72;;;1.30;;
23078;SDS011;11707;50.830;4.364;2023-04-25T13:03:10;3.88;;;1.33;;
23078;SDS011;11707;50.830;4.364;2023-04-25T13:05:36;5.10;;;1.60;;
23078;SDS011;11707;50.830;4.364;2023-04-25T13:08:02;7.15;;;2.05;;
23078;SDS011;11707;50.830;4.364;2023-04-25T13:10:29;10.40;;;1.83;;
23078;SDS011;11707;50.830;4.364;2023-04-25T13:12:55;17.92;;;2.80;;
23078;SDS011;11707;50.830;4.364;2023-04-25T13:15:21;16.55;;;2.58;;
23078;SDS011;11707;50.830;4.364;2023-04-25T13:17:48;11.77;;;2.80;;
23078;SDS011;11707;50.830;4.364;2023-04-25T13:20:14;6.63;;;1.00;;
23078;SDS011;11707;50.830;4.364;2023-04-25T13:22:41;5.53;;;1.63;;
23078;SDS011;11707;50.830;4.364;2023-04-25T13:25:10;5.32;;;1.27;;
23078;SDS011;11707;50.830;4.364;2023-04-25T13:27:37;3.97;;;1.20;;
23078;SDS011;11707;50.830;4.364;2023-04-25T13:30:04;4.68;;;1.40;;
23078;SDS011;11707;50.830;4.364;2023-04-25T13:32:36;6.90;;;2.50;;
23078;SDS011;11707;50.830;4.364;2023-04-25T13:35:08;4.18;;;1.52;;
23078;SDS011;11707;50.830;4.364;2023-04-25T13:37:36;6.32;;;1.77;;
23078;SDS011;11707;50.830;4.364;2023-04-25T13:40:07;4.57;;;1.10;;
23078;SDS011;11707;50.830;4.364;2023-04-25T13:42:35;7.60;;;1.35;;
23078;SDS011;11707;50.830;4.364;2023-04-25T13:45:01;4.45;;;1.33;;
23078;SDS011;11707;50.830;4.364;2023-04-25T13:47:30;4.82;;;1.30;;
23078;SDS011;11707;50.830;4.364;2023-04-25T13:49:56;6.07;;;1.10;;
23078;SDS011;11707;50.830;4.364;2023-04-25T13:52:25;4.15;;;1.13;;
23078;SDS011;11707;50.830;4.364;2023-04-25T13:54:54;4.43;;;1.60;;
23078;SDS011;11707;50.830;4.364;2023-04-25T13:57:20;7.80;;;1.05;;
23078;SDS011;11707;50.830;4.364;2023-04-25T13:59:45;6.22;;;1.50;;
23078;SDS011;11707;50.830;4.364;2023-04-25T14:02:11;5.90;;;1.38;;
23078;SDS011;11707;50.830;4.364;2023-04-25T14:04:39;4.55;;;1.48;;
23078;SDS011;11707;50.830;4.364;2023-04-25T14:07:08;3.28;;;0.80;;
23078;SDS011;11707;50.830;4.364;2023-04-25T14:09:36;7.95;;;1.50;;
23078;SDS011;11707;50.830;4.364;2023-04-25T14:12:02;2.70;;;1.05;;
23078;SDS011;11707;50.830;4.364;2023-04-25T14:14:30;3.08;;;1.00;;
23078;SDS011;11707;50.830;4.364;2023-04-25T14:16:56;6.28;;;1.20;;
23078;SDS011;11707;50.830;4.364;2023-04-25T14:19:22;10.82;;;1.67;;
23078;SDS011;11707;50.830;4.364;2023-04-25T14:21:48;3.60;;;1.20;;
23078;SDS011;11707;50.830;4.364;2023-04-25T14:24:14;5.70;;;1.92;;
23078;SDS011;11707;50.830;4.364;2023-04-25T14:26:43;7.50;;;1.33;;
23078;SDS011;11707;50.830;4.364;2023-04-25T14:29:09;5.22;;;0.98;;
23078;SDS011;11707;50.830;4.364;2023-04-25T14:31:37;5.50;;;1.60;;
23078;SDS011;11707;50.830;4.364;2023-04-25T14:34:04;8.93;;;1.80;;
23078;SDS011;11707;50.830;4.364;2023-04-25T14:36:29;2.67;;;1.00;;
23078;SDS011;11707;50.830;4.364;2023-04-25T14:38:58;3.40;;;1.25;;
23078;SDS011;11707;50.830;4.364;2023-04-25T14:41:25;6.72;;;1.60;;
23078;SDS011;11707;50.830;4.364;2023-04-25T14:43:54;3.63;;;1.02;;
23078;SDS011;11707;50.830;4.364;2023-04-25T14:46:21;3.75;;;1.30;;
23078;SDS011;11707;50.830;4.364;2023-04-25T14:48:48;4.10;;;1.30;;
23078;SDS011;11707;50.830;4.364;2023-04-25T14:51:14;5.70;;;1.30;;
23078;SDS011;11707;50.830;4.364;2023-04-25T14:53:40;5.63;;;1.08;;
23078;SDS011;11707;50.830;4.364;2023-04-25T14:56:08;8.57;;;1.73;;